Overview Statistics Trail Chart Weather Telemetry Raw packets
 

This is the latest recevied weather packets stored in our database for station/object ED4YAF-13. If no packets are shown the sender has not sent any weather packets the latest 10 day(s).

<< 1 2 3 4 >>
Time Temp. Humidity Pressure Rain* Wind** Luminosity Snow
1788617745 30° C 19% 1013.9 hPa - - - -
1788616836 30.56° C 19% 1013.8 hPa - - - -
1788615910 30.56° C 19% 1014.2 hPa - - - -
1788614110 30° C 20% 1014.4 hPa - - - -
1788612293 29.44° C 20% 1014.9 hPa - - - -
1788611389 29.44° C 20% 1015.3 hPa - - - -
1788610478 29.44° C 20% 1015.2 hPa - - - -
1788609578 29.44° C 20% 1015.2 hPa - - - -
1788608678 28.89° C 21% 1015.7 hPa - - - -
1788607763 28.33° C 22% 1016 hPa - - - -
1788606850 28.33° C 23% 1016.1 hPa - - - -
1788605941 27.78° C 24% 1016.5 hPa - - - -
1788605041 27.22° C 25% 1017 hPa - - - -
1788604138 27.22° C 25% 1017.2 hPa - - - -
1788603237 27.22° C 26% 1017.1 hPa - - - -
1788602325 26.11° C 27% 1017.7 hPa - - - -
1788601410 26.11° C 27% 1017.9 hPa - - - -
1788600505 25.56° C 27% 1018.1 hPa - - - -
1788599601 23.89° C 29% 1019 hPa - - - -
1788598697 24.44° C 28% 1018.6 hPa - - - -
1788597797 25° C 26% 1017.9 hPa - - - -
1788596897 24.44° C 27% 1018.3 hPa - - - -
1788595985 23.33° C 28% 1019.1 hPa - - - -
1788595072 22.78° C 28% 1019.3 hPa - - - -
1788594155 22.78° C 29% 1019.4 hPa - - - -

* Rain since midnight (hover to see other rain measurements)
** Current wind speed in m/s (hover to see current wind gust speed)